createdAt,value
2022-08-05T00:00:46.420Z,57.30
2022-08-05T00:03:18.584Z,57.51
2022-08-05T00:06:04.679Z,57.52
2022-08-05T00:08:36.957Z,57.87
2022-08-05T00:11:23.811Z,57.95
2022-08-05T00:13:56.210Z,58.12
2022-08-05T00:16:36.394Z,58.26
2022-08-05T00:19:13.568Z,58.51
2022-08-05T00:21:42.688Z,58.48
2022-08-05T00:24:15.977Z,58.86
2022-08-05T00:26:51.791Z,58.87
2022-08-05T00:29:22.635Z,59.27
2022-08-05T00:32:12.141Z,59.20
2022-08-05T00:35:03.689Z,59.21
2022-08-05T00:37:50.384Z,59.57
2022-08-05T00:40:27.149Z,59.36
2022-08-05T00:43:00.394Z,59.45
2022-08-05T00:45:38.467Z,59.72
2022-08-05T00:48:10.026Z,59.71
2022-08-05T00:50:41.239Z,60.06
2022-08-05T00:54:01.401Z,60.05
2022-08-05T00:55:59.334Z,60.05
2022-08-05T00:58:28.969Z,60.28
2022-08-05T01:00:57.343Z,60.26
2022-08-05T01:03:31.047Z,60.20
2022-08-05T01:06:02.614Z,60.44
2022-08-05T01:08:43.173Z,60.50
2022-08-05T01:11:22.380Z,60.85
2022-08-05T01:14:11.586Z,60.82
2022-08-05T01:17:02.723Z,61.10
2022-08-05T01:20:01.915Z,61.13
2022-08-05T01:22:37.732Z,61.50
2022-08-05T01:25:43.231Z,61.69
2022-08-05T01:28:27.539Z,61.99
2022-08-05T01:30:57.274Z,62.15
2022-08-05T01:33:38.503Z,62.18
2022-08-05T01:36:18.529Z,62.43
2022-08-05T01:38:53.448Z,62.30
2022-08-05T01:41:25.613Z,62.28
2022-08-05T01:43:55.882Z,62.29
2022-08-05T01:46:42.280Z,62.45
2022-08-05T01:49:23.315Z,62.76
2022-08-05T01:52:01.111Z,62.96
2022-08-05T01:54:46.173Z,62.69
2022-08-05T01:58:10.722Z,62.55
2022-08-05T02:00:12.029Z,62.60
2022-08-05T02:02:51.130Z,62.71
2022-08-05T02:05:28.605Z,63.29
2022-08-05T02:08:01.214Z,63.34
2022-08-05T02:10:39.909Z,63.84
2022-08-05T02:13:16.468Z,63.70
2022-08-05T02:15:51.025Z,63.99
2022-08-05T02:18:30.855Z,64.33
2022-08-05T02:21:05.766Z,64.48
2022-08-05T02:23:43.659Z,64.64
2022-08-05T02:26:21.798Z,64.62
2022-08-05T02:28:50.915Z,64.49
2022-08-05T02:31:23.267Z,64.37
2022-08-05T02:33:57.612Z,64.41
2022-08-05T02:36:31.571Z,64.47
2022-08-05T02:39:03.419Z,64.83
2022-08-05T02:41:43.319Z,64.87
2022-08-05T02:44:23.475Z,65.14
2022-08-05T02:46:58.864Z,65.07
2022-08-05T02:49:36.137Z,65.48
2022-08-05T02:52:09.341Z,65.39
2022-08-05T02:54:40.994Z,65.49
2022-08-05T02:58:12.114Z,65.58
2022-08-05T03:00:04.286Z,65.97
2022-08-05T03:02:37.121Z,65.97
2022-08-05T03:05:08.889Z,66.15
2022-08-05T03:07:56.592Z,66.10
2022-08-05T03:10:28.474Z,66.36
2022-08-05T03:15:24.869Z,66.61
2022-08-05T03:17:55.629Z,66.88
2022-08-05T03:20:25.140Z,67.11
2022-08-05T03:22:55.283Z,67.31
2022-08-05T03:25:33.241Z,67.36
2022-08-05T03:28:18.844Z,67.51
2022-08-05T03:30:57.398Z,67.79
2022-08-05T03:33:42.353Z,67.44
2022-08-05T03:36:29.807Z,67.36
2022-08-05T03:39:07.803Z,67.59
2022-08-05T03:41:45.391Z,68.04
2022-08-05T03:44:19.913Z,68.15
2022-08-05T03:46:50.326Z,68.17
2022-08-05T03:49:19.189Z,68.61
2022-08-05T03:52:36.559Z,68.30
2022-08-05T03:55:51.765Z,68.19
2022-08-05T03:57:42.376Z,68.25
2022-08-05T04:00:15.489Z,68.22
2022-08-05T04:02:58.718Z,68.28
2022-08-05T04:05:33.304Z,68.26
2022-08-05T04:08:05.788Z,68.27
2022-08-05T04:10:45.682Z,68.06
2022-08-05T04:13:18.458Z,67.85
2022-08-05T04:16:02.936Z,67.94
2022-08-05T04:18:34.395Z,68.04
2022-08-05T04:21:05.033Z,67.98
2022-08-05T04:24:04.884Z,67.84
2022-08-05T04:26:24.622Z,67.85
2022-08-05T04:28:53.460Z,67.84
2022-08-05T04:31:22.455Z,67.78
2022-08-05T04:34:31.997Z,67.79
2022-08-05T04:36:50.024Z,67.55
2022-08-05T04:39:19.679Z,67.31
2022-08-05T04:41:48.843Z,67.10
2022-08-05T04:44:30.082Z,67.06
2022-08-05T04:47:00.143Z,66.92
2022-08-05T04:50:02.582Z,66.77
2022-08-05T04:52:29.496Z,66.27
2022-08-05T04:55:14.371Z,66.08
2022-08-05T04:57:47.485Z,65.93
2022-08-05T05:00:23.485Z,65.84
2022-08-05T05:02:52.482Z,65.51
2022-08-05T05:05:28.270Z,65.33
2022-08-05T05:08:01.938Z,65.31
2022-08-05T05:10:33.584Z,65.17
2022-08-05T05:13:04.224Z,64.95
2022-08-05T05:15:57.135Z,64.90
2022-08-05T05:18:31.242Z,64.75
2022-08-05T05:21:03.211Z,64.60
2022-08-05T05:24:02.475Z,64.48
2022-08-05T05:26:28.887Z,64.52
2022-08-05T05:29:02.286Z,64.42
2022-08-05T05:34:02.393Z,64.20
2022-08-05T05:36:32.249Z,64.15
2022-08-05T05:39:04.339Z,64.01
2022-08-05T05:41:40.110Z,63.94
2022-08-05T05:44:35.744Z,63.91
2022-08-05T05:47:04.361Z,63.83
2022-08-05T05:49:33.723Z,63.64
2022-08-05T05:52:06.013Z,63.57
2022-08-05T05:54:51.314Z,63.54
2022-08-05T05:57:42.886Z,63.36
2022-08-05T06:00:31.365Z,63.16
2022-08-05T06:03:40.651Z,63.07
2022-08-05T06:06:01.965Z,62.97
2022-08-05T06:08:35.308Z,62.92
2022-08-05T06:11:10.288Z,62.77
2022-08-05T06:13:50.257Z,62.50
2022-08-05T06:16:30.335Z,62.36
2022-08-05T06:19:05.915Z,62.29
2022-08-05T06:21:38.509Z,62.19
2022-08-05T06:24:14.731Z,62.08
2022-08-05T06:26:52.192Z,61.97
2022-08-05T06:29:43.193Z,61.82
2022-08-05T06:32:21.081Z,61.78
2022-08-05T06:34:58.012Z,61.57
2022-08-05T06:37:56.945Z,61.45
2022-08-05T06:40:20.798Z,61.38
2022-08-05T06:42:51.924Z,61.25
2022-08-05T06:45:45.008Z,61.06
2022-08-05T06:48:44.395Z,60.77
2022-08-05T06:51:00.427Z,60.52
2022-08-05T06:53:29.448Z,60.24
2022-08-05T06:56:06.340Z,59.69
2022-08-05T06:58:54.977Z,59.54
2022-08-05T07:01:23.875Z,59.40
2022-08-05T07:04:02.982Z,58.92
2022-08-05T07:06:32.378Z,58.73
2022-08-05T07:09:03.735Z,58.25
2022-08-05T07:11:49.476Z,58.25
2022-08-05T07:14:46.979Z,58.04
2022-08-05T07:18:02.048Z,57.57
2022-08-05T07:20:33.409Z,57.67
2022-08-05T07:23:49.926Z,57.67
2022-08-05T07:26:25.676Z,57.55
2022-08-05T07:31:59.836Z,56.74
2022-08-05T07:34:42.008Z,56.64
2022-08-05T07:37:26.218Z,56.66
2022-08-05T07:40:27.027Z,56.10
2022-08-05T07:43:19.989Z,55.38
2022-08-05T07:45:56.979Z,55.29
2022-08-05T07:49:02.655Z,55.57
2022-08-05T07:56:04.938Z,54.88
2022-08-05T07:58:54.737Z,54.70
2022-08-05T08:01:57.598Z,54.61
2022-08-05T08:04:41.803Z,54.02
2022-08-05T08:07:27.328Z,53.41
2022-08-05T08:10:05.424Z,52.94
2022-08-05T08:12:49.297Z,52.74
2022-08-05T08:15:37.255Z,52.44
2022-08-05T08:18:20.849Z,51.64
2022-08-05T08:21:03.112Z,52.13
2022-08-05T08:24:02.127Z,51.95
2022-08-05T08:26:29.953Z,51.44
2022-08-05T08:29:45.522Z,50.43
2022-08-05T08:32:00.328Z,49.38
2022-08-05T08:34:33.197Z,48.87
2022-08-05T08:37:04.872Z,49.30
2022-08-05T08:45:16.413Z,48.92
2022-08-05T08:46:10.118Z,47.85
2022-08-05T08:49:06.279Z,47.47
2022-08-05T08:52:04.105Z,47.91
2022-08-05T08:54:27.294Z,46.64
2022-08-05T08:57:01.178Z,46.79
2022-08-05T08:59:33.600Z,46.65
2022-08-05T09:02:17.738Z,46.04
2022-08-05T09:05:16.253Z,45.97
2022-08-05T09:07:57.655Z,45.79
2022-08-05T09:10:30.429Z,45.74
2022-08-05T09:13:04.484Z,45.03
2022-08-05T09:15:36.832Z,45.07
2022-08-05T09:18:08.857Z,44.17
2022-08-05T09:20:42.653Z,43.21
2022-08-05T09:23:21.880Z,43.80
2022-08-05T09:26:09.251Z,44.50
2022-08-05T09:28:40.096Z,44.06
2022-08-05T09:31:22.593Z,43.44
2022-08-05T09:34:02.611Z,43.10
2022-08-05T09:36:54.132Z,42.14
2022-08-05T09:43:02.501Z,42.24
2022-08-05T09:46:07.238Z,42.56
2022-08-05T09:49:06.552Z,42.63
2022-08-05T09:51:55.390Z,41.37
2022-08-05T09:54:46.405Z,40.98
2022-08-05T09:57:29.385Z,41.34
2022-08-05T10:00:12.006Z,41.28
2022-08-05T10:02:47.122Z,40.87
2022-08-05T10:05:19.153Z,40.81
2022-08-05T10:08:35.462Z,40.00
2022-08-05T10:10:54.998Z,39.20
2022-08-05T10:13:46.312Z,38.72
2022-08-05T10:16:37.774Z,38.96
2022-08-05T10:19:23.821Z,38.85
2022-08-05T10:22:01.159Z,38.68
2022-08-05T10:24:34.283Z,38.45
2022-08-05T10:27:12.875Z,37.60
2022-08-05T10:30:41.096Z,37.20
2022-08-05T10:32:54.148Z,36.93
2022-08-05T10:35:43.954Z,37.26
2022-08-05T10:38:14.938Z,37.54
2022-08-05T10:40:52.122Z,37.55
2022-08-05T10:43:35.781Z,36.40
2022-08-05T10:46:07.179Z,36.03
2022-08-05T10:48:52.508Z,35.69
2022-08-05T10:51:29.128Z,35.27
2022-08-05T10:54:22.992Z,35.19
2022-08-05T10:56:55.573Z,35.10
2022-08-05T11:00:03.500Z,34.45
2022-08-05T11:02:37.638Z,35.06
2022-08-05T11:05:11.629Z,35.57
2022-08-05T11:08:01.295Z,34.68
2022-08-05T11:10:37.786Z,34.69
2022-08-05T11:13:55.027Z,34.59
2022-08-05T11:16:33.802Z,33.70
2022-08-05T11:20:11.466Z,33.88
2022-08-05T11:22:39.371Z,34.00
2022-08-05T11:26:04.584Z,33.67
2022-08-05T11:28:52.669Z,33.14
2022-08-05T11:31:58.537Z,33.16
2022-08-05T11:34:51.525Z,32.79
2022-08-05T11:38:29.003Z,32.94
2022-08-05T11:41:58.250Z,32.59
2022-08-05T11:44:40.150Z,32.35
2022-08-05T11:47:15.161Z,31.98
2022-08-05T11:49:49.611Z,32.28
2022-08-05T11:52:29.367Z,32.64
2022-08-05T11:55:07.730Z,32.21
2022-08-05T11:58:09.389Z,32.56
2022-08-05T12:00:58.559Z,32.71
2022-08-05T12:03:40.034Z,31.55
2022-08-05T12:06:11.367Z,31.93
2022-08-05T12:08:50.924Z,32.03
2022-08-05T12:11:28.335Z,32.18
2022-08-05T12:14:10.516Z,32.83
2022-08-05T12:16:45.406Z,32.70
2022-08-05T12:20:26.436Z,31.74
2022-08-05T12:22:26.461Z,31.63
2022-08-05T12:24:58.195Z,31.80
2022-08-05T12:27:33.051Z,32.31
2022-08-05T12:30:05.424Z,32.36
2022-08-05T12:32:35.435Z,31.93
2022-08-05T12:35:06.688Z,31.82
2022-08-05T12:37:37.097Z,31.90
2022-08-05T12:40:20.769Z,32.11
2022-08-05T12:42:57.840Z,31.06
2022-08-05T12:45:49.583Z,30.88
2022-08-05T12:48:32.398Z,30.94
2022-08-05T12:52:10.972Z,31.13
2022-08-05T12:54:23.399Z,31.55
2022-08-05T12:56:56.868Z,31.80
2022-08-05T13:00:09.005Z,31.72
2022-08-05T13:02:30.752Z,31.56
2022-08-05T13:05:01.004Z,31.41
2022-08-05T13:07:57.410Z,30.54
2022-08-05T13:10:23.766Z,30.80
2022-08-05T13:12:58.233Z,31.26
2022-08-05T13:15:42.203Z,31.02
2022-08-05T13:18:20.428Z,31.25
2022-08-05T13:20:52.200Z,31.41
2022-08-05T13:23:23.183Z,30.77
2022-08-05T13:25:59.372Z,30.67
2022-08-05T13:28:33.582Z,30.69
2022-08-05T13:31:14.443Z,30.18
2022-08-05T13:34:20.954Z,29.93
2022-08-05T13:36:39.689Z,30.20
2022-08-05T13:39:24.428Z,29.88
2022-08-05T13:42:00.321Z,29.90
2022-08-05T13:44:29.974Z,30.23
2022-08-05T13:47:04.513Z,29.93
2022-08-05T13:49:37.370Z,29.97
2022-08-05T13:52:16.059Z,29.87
2022-08-05T13:54:53.381Z,29.85
2022-08-05T13:57:23.151Z,30.00
2022-08-05T13:59:57.157Z,30.61
2022-08-05T14:02:29.930Z,29.98
2022-08-05T14:05:15.421Z,29.90
2022-08-05T14:08:00.725Z,29.45
2022-08-05T14:10:35.030Z,29.89
2022-08-05T14:13:03.615Z,29.62
2022-08-05T14:16:07.235Z,29.68
2022-08-05T14:18:23.315Z,29.61
2022-08-05T14:20:54.945Z,29.95
2022-08-05T14:23:26.038Z,29.38
2022-08-05T14:25:58.477Z,29.48
2022-08-05T14:28:29.093Z,29.33
2022-08-05T14:30:58.031Z,29.10
2022-08-05T14:33:59.106Z,29.75
2022-08-05T14:36:45.092Z,29.21
2022-08-05T14:39:18.047Z,29.34
2022-08-05T14:42:15.933Z,28.51
2022-08-05T14:44:42.971Z,28.91
2022-08-05T14:47:58.426Z,29.28
2022-08-05T14:50:14.231Z,29.19
2022-08-05T14:52:53.449Z,29.38
2022-08-05T14:55:39.637Z,29.47
2022-08-05T14:58:23.535Z,29.53
2022-08-05T15:01:47.980Z,29.45
2022-08-05T15:04:35.243Z,29.51
2022-08-05T15:08:08.642Z,29.48
2022-08-05T15:10:51.176Z,30.10
2022-08-05T15:13:50.366Z,29.86
2022-08-05T15:16:43.807Z,29.88
2022-08-05T15:23:09.340Z,29.92
2022-08-05T15:25:53.384Z,29.97
2022-08-05T15:28:33.166Z,30.33
2022-08-05T15:31:03.692Z,30.39
2022-08-05T15:34:05.941Z,30.39
2022-08-05T15:36:26.541Z,30.53
2022-08-05T15:40:41.604Z,30.74
2022-08-05T15:41:56.143Z,30.86
2022-08-05T15:44:30.691Z,31.06
2022-08-05T15:47:10.270Z,31.06
2022-08-05T15:49:58.801Z,31.11
2022-08-05T15:52:52.799Z,31.37
2022-08-05T15:55:25.158Z,31.60
2022-08-05T15:58:16.704Z,31.95
2022-08-05T16:00:57.135Z,31.86
2022-08-05T16:03:36.481Z,32.30
2022-08-05T16:06:11.342Z,32.10
2022-08-05T16:08:40.471Z,32.03
2022-08-05T16:11:10.392Z,32.06
2022-08-05T16:13:39.945Z,32.05
2022-08-05T16:16:15.900Z,32.44
2022-08-05T16:19:03.233Z,32.43
2022-08-05T16:21:58.928Z,32.47
2022-08-05T16:24:40.129Z,32.33
2022-08-05T16:27:16.101Z,32.75
2022-08-05T16:29:50.850Z,32.53
2022-08-05T16:32:23.452Z,32.71
2022-08-05T16:34:58.679Z,32.65
2022-08-05T16:38:15.171Z,32.66
2022-08-05T16:40:25.125Z,32.54
2022-08-05T16:43:00.437Z,32.48
2022-08-05T16:46:04.753Z,32.48
2022-08-05T16:48:33.405Z,32.63
2022-08-05T16:51:09.762Z,32.88
2022-08-05T16:54:02.811Z,33.18
2022-08-05T16:56:30.384Z,33.35
2022-08-05T16:59:00.980Z,33.45
2022-08-05T17:01:53.937Z,33.43
2022-08-05T17:04:26.441Z,33.71
2022-08-05T17:06:55.935Z,33.95
2022-08-05T17:09:27.392Z,34.43
2022-08-05T17:11:59.625Z,34.53
2022-08-05T17:14:37.663Z,34.94
2022-08-05T17:17:09.417Z,35.13
2022-08-05T17:19:45.986Z,35.59
2022-08-05T17:22:25.595Z,35.74
2022-08-05T17:24:58.773Z,35.94
2022-08-05T17:27:33.288Z,36.34
2022-08-05T17:30:03.300Z,36.50
2022-08-05T17:32:33.787Z,36.95
2022-08-05T17:35:03.388Z,37.11
2022-08-05T17:37:40.066Z,37.27
2022-08-05T17:40:13.559Z,37.69
2022-08-05T17:42:50.586Z,37.86
2022-08-05T17:45:22.152Z,38.15
2022-08-05T17:47:56.033Z,38.16
2022-08-05T17:50:28.587Z,38.51
2022-08-05T17:53:14.208Z,38.81
2022-08-05T17:55:43.568Z,39.16
2022-08-05T17:58:16.375Z,39.45
2022-08-05T18:00:51.140Z,39.84
2022-08-05T18:06:42.295Z,40.64
2022-08-05T18:10:00.480Z,41.20
2022-08-05T18:13:48.098Z,41.62
2022-08-05T18:17:59.553Z,42.43
2022-08-05T18:20:29.341Z,42.86
2022-08-05T18:23:11.408Z,43.19
2022-08-05T18:25:44.766Z,43.50
2022-08-05T18:28:21.859Z,43.97
2022-08-05T18:30:54.146Z,44.34
2022-08-05T18:33:46.678Z,44.70
2022-08-05T18:36:19.483Z,45.07
2022-08-05T18:38:50.402Z,45.37
2022-08-05T18:41:58.533Z,45.59
2022-08-05T18:44:14.619Z,45.94
2022-08-05T18:47:05.106Z,46.14
2022-08-05T18:49:58.211Z,46.52
2022-08-05T18:52:35.887Z,46.64
2022-08-05T18:55:10.963Z,46.83
2022-08-05T18:57:43.129Z,47.10
2022-08-05T19:00:20.393Z,47.39
2022-08-05T19:02:52.875Z,47.55
2022-08-05T19:06:13.218Z,47.89
2022-08-05T19:08:15.360Z,48.34
2022-08-05T19:10:50.680Z,48.50
2022-08-05T19:13:20.156Z,48.73
2022-08-05T19:16:00.236Z,48.96
2022-08-05T19:18:37.551Z,49.01
2022-08-05T19:21:13.442Z,48.96
2022-08-05T19:24:05.997Z,48.97
2022-08-05T19:26:34.509Z,48.91
2022-08-05T19:29:10.591Z,48.97
2022-08-05T19:31:50.990Z,49.22
2022-08-05T19:34:27.502Z,49.19
2022-08-05T19:37:02.495Z,49.24
2022-08-05T19:39:45.958Z,49.08
2022-08-05T19:42:36.058Z,49.20
2022-08-05T19:45:14.623Z,49.19
2022-08-05T19:47:44.762Z,49.18
2022-08-05T19:50:15.735Z,49.03
2022-08-05T19:52:47.627Z,49.24
2022-08-05T19:56:14.630Z,49.29
2022-08-05T19:58:28.797Z,49.21
2022-08-05T20:01:01.055Z,49.36
2022-08-05T20:03:42.195Z,49.49
2022-08-05T20:06:28.832Z,49.63
2022-08-05T20:09:13.739Z,49.80
2022-08-05T20:11:48.320Z,50.07
2022-08-05T20:14:27.151Z,50.29
2022-08-05T20:17:01.833Z,50.54
2022-08-05T20:19:36.182Z,50.61
2022-08-05T20:22:12.578Z,50.64
2022-08-05T20:24:41.475Z,50.59
2022-08-05T20:27:15.880Z,50.69
2022-08-05T20:29:57.436Z,50.74
2022-08-05T20:32:38.081Z,51.19
2022-08-05T20:35:26.427Z,51.20
2022-08-05T20:38:07.714Z,51.51
2022-08-05T20:40:37.595Z,51.62
2022-08-05T20:43:11.984Z,51.85
2022-08-05T20:45:55.953Z,51.98
2022-08-05T20:48:25.626Z,52.46
2022-08-05T20:50:54.485Z,52.51
2022-08-05T20:53:36.961Z,52.61
2022-08-05T20:56:09.871Z,53.02
2022-08-05T20:58:38.393Z,53.06
2022-08-05T21:01:07.128Z,53.34
2022-08-05T21:03:36.533Z,53.32
2022-08-05T21:06:27.792Z,53.61
2022-08-05T21:08:57.606Z,53.75
2022-08-05T21:12:09.747Z,53.64
2022-08-05T21:14:18.660Z,53.72
2022-08-05T21:16:47.266Z,53.86
2022-08-05T21:19:15.610Z,54.05
2022-08-05T21:21:51.005Z,54.05
2022-08-05T21:24:23.746Z,54.41
2022-08-05T21:26:57.928Z,54.60
2022-08-05T21:29:32.033Z,54.72
2022-08-05T21:32:05.786Z,54.67
2022-08-05T21:34:35.442Z,54.96
2022-08-05T21:37:08.360Z,54.86
2022-08-05T21:39:40.675Z,55.29
2022-08-05T21:42:30.729Z,55.42
2022-08-05T21:44:59.806Z,55.19
2022-08-05T21:47:56.698Z,55.56
2022-08-05T21:50:18.491Z,55.65
2022-08-05T21:52:48.326Z,55.89
2022-08-05T21:55:18.475Z,56.03
2022-08-05T21:58:10.546Z,56.00
2022-08-05T22:00:40.307Z,56.21
2022-08-05T22:03:14.202Z,56.65
2022-08-05T22:05:48.464Z,56.64
2022-08-05T22:08:22.193Z,56.69
2022-08-05T22:10:53.335Z,56.65
2022-08-05T22:14:34.437Z,56.74
2022-08-05T22:16:39.124Z,57.02
2022-08-05T22:19:00.040Z,57.12
2022-08-05T22:21:30.398Z,57.13
2022-08-05T22:24:40.259Z,57.35
2022-08-05T22:27:24.195Z,57.70
2022-08-05T22:30:14.563Z,57.81
2022-08-05T22:32:45.651Z,58.18
2022-08-05T22:35:14.631Z,58.28
2022-08-05T22:37:58.928Z,58.57
2022-08-05T22:40:28.262Z,58.84
2022-08-05T22:42:59.355Z,59.02
2022-08-05T22:45:28.141Z,58.93
2022-08-05T22:47:59.100Z,59.25
2022-08-05T22:50:27.745Z,59.42
2022-08-05T22:52:56.452Z,59.57
2022-08-05T22:55:26.072Z,59.73
2022-08-05T22:57:55.016Z,59.85
2022-08-05T23:00:23.964Z,59.90
2022-08-05T23:02:53.327Z,60.16
2022-08-05T23:05:22.586Z,60.71
2022-08-05T23:07:51.617Z,61.05
2022-08-05T23:10:23.840Z,60.78
2022-08-05T23:12:54.413Z,60.69
2022-08-05T23:15:29.650Z,60.67
2022-08-05T23:18:05.864Z,60.50
2022-08-05T23:20:40.025Z,60.52
2022-08-05T23:23:11.365Z,60.51
2022-08-05T23:25:50.962Z,60.38
2022-08-05T23:28:22.546Z,60.36
2022-08-05T23:30:53.435Z,60.51
2022-08-05T23:33:26.203Z,60.68
2022-08-05T23:36:13.575Z,60.84
2022-08-05T23:38:43.411Z,60.94
2022-08-05T23:41:12.828Z,60.98
2022-08-05T23:44:05.275Z,60.97
2022-08-05T23:46:29.836Z,61.01
2022-08-05T23:49:00.277Z,60.99
2022-08-05T23:51:52.495Z,61.22
2022-08-05T23:54:26.084Z,61.36
2022-08-05T23:57:03.156Z,61.52
